createdAt,value
2022-12-20T00:01:35.188Z,2.69
2022-12-20T00:05:37.818Z,2.83
2022-12-20T00:09:39.254Z,2.78
2022-12-20T00:13:41.199Z,2.76
2022-12-20T00:17:42.724Z,2.90
2022-12-20T00:21:44.245Z,2.86
2022-12-20T00:25:45.818Z,2.98
2022-12-20T00:29:47.283Z,3.00
2022-12-20T00:33:50.629Z,3.06
2022-12-20T00:37:52.065Z,3.03
2022-12-20T00:41:53.528Z,3.07
2022-12-20T00:45:55.304Z,3.16
2022-12-20T00:49:56.764Z,2.96
2022-12-20T00:53:58.334Z,3.07
2022-12-20T00:57:59.797Z,2.84
2022-12-20T01:02:01.464Z,2.98
2022-12-20T01:06:03.296Z,2.88
2022-12-20T01:10:05.072Z,3.00
2022-12-20T01:14:10.721Z,2.91
2022-12-20T01:18:12.203Z,2.88
2022-12-20T01:22:13.662Z,2.95
2022-12-20T01:26:17.962Z,3.02
2022-12-20T01:30:19.414Z,2.93
2022-12-20T01:34:20.927Z,3.02
2022-12-20T01:38:22.463Z,3.03
2022-12-20T01:42:23.952Z,3.00
2022-12-20T01:46:28.409Z,2.91
2022-12-20T01:50:29.863Z,3.04
2022-12-20T01:54:37.597Z,3.16
2022-12-20T01:58:40.268Z,2.98
2022-12-20T02:02:43.866Z,3.11
2022-12-20T02:06:45.499Z,3.14
2022-12-20T02:10:55.445Z,3.28
2022-12-20T02:14:59.783Z,3.30
2022-12-20T02:19:26.477Z,3.29
2022-12-20T02:24:05.334Z,3.26
2022-12-20T02:28:42.256Z,3.43
2022-12-20T02:32:49.277Z,3.43
2022-12-20T02:36:51.419Z,3.43
2022-12-20T02:40:58.062Z,3.49
2022-12-20T02:45:18.000Z,3.45
2022-12-20T02:49:23.819Z,3.56
2022-12-20T02:53:25.390Z,3.55
2022-12-20T02:57:42.647Z,3.51
2022-12-20T03:01:55.148Z,3.61
2022-12-20T03:05:56.962Z,3.58
2022-12-20T03:09:58.387Z,3.53
2022-12-20T03:13:59.939Z,3.45
2022-12-20T03:18:01.408Z,3.54
2022-12-20T03:22:02.946Z,3.53
2022-12-20T03:26:04.819Z,3.63
2022-12-20T03:30:07.092Z,3.64
2022-12-20T03:34:08.570Z,3.66
2022-12-20T03:38:10.132Z,3.55
2022-12-20T03:42:11.697Z,3.63
2022-12-20T03:46:13.282Z,3.78
2022-12-20T03:50:15.288Z,3.78
2022-12-20T03:54:16.790Z,3.71
2022-12-20T03:58:18.273Z,3.76
2022-12-20T04:02:20.550Z,3.83
2022-12-20T04:06:23.668Z,3.85
2022-12-20T04:10:25.212Z,3.76
2022-12-20T04:14:26.664Z,3.80
2022-12-20T04:18:28.149Z,3.83
2022-12-20T04:22:29.636Z,3.87
2022-12-20T04:26:31.399Z,3.76
2022-12-20T04:30:32.875Z,3.83
2022-12-20T04:34:34.373Z,3.64
2022-12-20T04:38:35.971Z,3.70
2022-12-20T04:42:37.389Z,3.64
2022-12-20T04:46:39.115Z,3.54
2022-12-20T04:50:40.768Z,3.52
2022-12-20T04:54:42.235Z,3.49
2022-12-20T04:58:44.032Z,3.51
2022-12-20T05:02:45.696Z,3.51
2022-12-20T05:06:47.248Z,3.53
2022-12-20T05:10:48.980Z,3.46
2022-12-20T05:14:50.414Z,3.48
2022-12-20T05:18:51.850Z,3.61
2022-12-20T05:23:11.557Z,3.65
2022-12-20T05:27:13.029Z,3.72
2022-12-20T05:31:14.574Z,3.76
2022-12-20T05:35:16.124Z,3.82
2022-12-20T05:39:17.720Z,3.59
2022-12-20T05:43:20.746Z,3.69
2022-12-20T05:47:22.218Z,3.71
2022-12-20T05:51:23.887Z,3.71
2022-12-20T05:55:25.355Z,3.81
2022-12-20T05:59:27.452Z,3.82
2022-12-20T06:03:28.994Z,3.77
2022-12-20T06:07:31.729Z,3.83
2022-12-20T06:11:33.682Z,3.83
2022-12-20T06:15:35.542Z,3.81
2022-12-20T06:19:37.005Z,3.94
2022-12-20T06:23:38.681Z,3.93
2022-12-20T06:27:40.254Z,3.94
2022-12-20T06:31:41.792Z,4.01
2022-12-20T06:35:43.346Z,4.10
2022-12-20T06:39:44.824Z,4.04
2022-12-20T06:43:46.306Z,4.06
2022-12-20T06:47:47.771Z,4.09
2022-12-20T06:51:49.442Z,4.04
2022-12-20T06:55:51.356Z,3.98
2022-12-20T06:59:52.804Z,4.03
2022-12-20T07:03:54.292Z,4.15
2022-12-20T07:07:55.808Z,4.11
2022-12-20T07:11:57.958Z,4.15
2022-12-20T07:16:01.238Z,4.08
2022-12-20T07:20:07.588Z,4.10
2022-12-20T07:24:12.588Z,4.17
2022-12-20T07:28:14.134Z,4.21
2022-12-20T07:32:15.650Z,4.20
2022-12-20T07:36:17.192Z,4.31
2022-12-20T07:40:18.713Z,4.24
2022-12-20T07:44:20.173Z,4.28
2022-12-20T07:48:22.238Z,4.25
2022-12-20T07:52:28.124Z,4.32
2022-12-20T07:56:36.035Z,4.60
2022-12-20T08:00:42.438Z,4.60
2022-12-20T08:04:44.381Z,4.60
2022-12-20T08:08:54.818Z,4.46
2022-12-20T08:12:57.826Z,4.53
2022-12-20T08:16:59.422Z,4.54
2022-12-20T08:21:01.183Z,4.57
2022-12-20T08:25:02.884Z,4.76
2022-12-20T08:29:04.594Z,4.86
2022-12-20T08:33:06.201Z,4.82
2022-12-20T08:37:14.596Z,4.91
2022-12-20T08:41:16.909Z,4.88
2022-12-20T08:45:19.379Z,4.78
2022-12-20T08:49:20.893Z,4.85
2022-12-20T08:53:22.416Z,4.78
2022-12-20T08:57:23.933Z,4.72
2022-12-20T09:01:27.123Z,4.72
2022-12-20T09:05:28.769Z,4.81
2022-12-20T09:09:30.229Z,4.68
2022-12-20T09:13:31.682Z,4.74
2022-12-20T09:17:33.124Z,4.82
2022-12-20T09:21:35.193Z,5.05
2022-12-20T09:25:37.614Z,5.01
2022-12-20T09:29:39.101Z,4.91
2022-12-20T09:33:41.658Z,5.05
2022-12-20T09:37:43.168Z,5.21
2022-12-20T09:41:44.892Z,5.20
2022-12-20T09:45:48.740Z,5.25
2022-12-20T09:49:55.071Z,5.51
2022-12-20T09:54:28.597Z,5.56
2022-12-20T09:58:32.821Z,5.49
2022-12-20T10:02:57.026Z,5.64
2022-12-20T10:07:16.294Z,5.85
2022-12-20T10:11:50.180Z,6.02
2022-12-20T10:16:07.694Z,5.93
2022-12-20T10:20:44.703Z,5.83
2022-12-20T10:25:10.291Z,6.09
2022-12-20T10:29:11.916Z,6.00
2022-12-20T10:33:20.360Z,6.03
2022-12-20T10:37:21.926Z,6.30
2022-12-20T10:41:30.985Z,6.35
2022-12-20T10:45:36.272Z,6.55
2022-12-20T10:49:41.013Z,6.45
2022-12-20T10:54:01.303Z,6.44
2022-12-20T10:58:13.762Z,6.57
2022-12-20T11:02:24.141Z,6.79
2022-12-20T11:06:42.511Z,6.53
2022-12-20T11:10:45.016Z,6.57
2022-12-20T11:14:49.072Z,6.63
2022-12-20T11:19:21.982Z,6.49
2022-12-20T11:23:32.727Z,6.39
2022-12-20T11:27:53.244Z,6.42
2022-12-20T11:32:13.383Z,6.56
2022-12-20T11:36:31.694Z,6.59
2022-12-20T11:40:41.444Z,6.52
2022-12-20T11:45:08.810Z,6.60
2022-12-20T11:49:34.020Z,6.57
2022-12-20T11:53:42.103Z,6.69
2022-12-20T12:02:33.037Z,6.73
2022-12-20T12:06:41.011Z,6.56
2022-12-20T12:10:51.049Z,6.96
2022-12-20T12:15:03.391Z,6.93
2022-12-20T12:19:10.614Z,6.80
2022-12-20T12:23:30.903Z,6.91
2022-12-20T12:27:32.899Z,6.75
2022-12-20T12:31:41.224Z,6.80
2022-12-20T12:36:19.996Z,6.96
2022-12-20T12:40:58.763Z,6.85
2022-12-20T12:45:25.268Z,6.88
2022-12-20T12:49:30.215Z,6.88
2022-12-20T12:53:45.790Z,6.83
2022-12-20T12:57:58.155Z,6.82
2022-12-20T13:02:03.943Z,7.68
2022-12-20T13:06:23.702Z,7.05
2022-12-20T13:10:29.490Z,6.68
2022-12-20T13:14:30.939Z,6.54
2022-12-20T13:18:32.639Z,6.44
2022-12-20T13:22:34.253Z,6.43
2022-12-20T13:26:49.765Z,6.45
2022-12-20T13:30:54.216Z,6.56
2022-12-20T13:34:57.264Z,6.51
2022-12-20T13:39:01.921Z,6.49
2022-12-20T13:43:25.917Z,6.45
2022-12-20T13:47:42.022Z,6.38
2022-12-20T13:51:43.483Z,6.42
2022-12-20T13:55:45.442Z,6.25
2022-12-20T13:59:55.390Z,6.28
2022-12-20T14:04:07.304Z,6.09
2022-12-20T14:08:15.087Z,5.98
2022-12-20T14:12:25.308Z,6.03
2022-12-20T14:16:31.608Z,6.00
2022-12-20T14:20:37.704Z,5.91
2022-12-20T14:24:44.545Z,5.94
2022-12-20T14:28:49.568Z,5.91
2022-12-20T14:32:51.063Z,5.80
2022-12-20T14:36:52.782Z,5.87
2022-12-20T14:40:55.890Z,5.75
2022-12-20T14:45:27.674Z,5.81
2022-12-20T14:49:31.565Z,5.73
2022-12-20T14:53:35.990Z,5.65
2022-12-20T14:57:45.412Z,5.64
2022-12-20T15:01:46.945Z,5.61
2022-12-20T15:05:51.812Z,5.60
2022-12-20T15:09:53.259Z,5.61
2022-12-20T15:13:56.211Z,5.75
2022-12-20T15:17:57.751Z,5.52
2022-12-20T15:22:00.144Z,5.54
2022-12-20T15:26:01.843Z,5.44
2022-12-20T15:30:07.045Z,5.48
2022-12-20T15:34:29.127Z,5.53
2022-12-20T15:38:54.767Z,5.38
2022-12-20T15:42:52.080Z,5.39
2022-12-20T15:46:54.016Z,5.31
2022-12-20T15:50:59.664Z,5.31
2022-12-20T15:55:01.300Z,5.40
2022-12-20T15:59:17.808Z,5.41
2022-12-20T16:03:28.693Z,5.39
2022-12-20T16:07:30.552Z,5.47
2022-12-20T16:11:32.748Z,5.34
2022-12-20T16:15:34.653Z,5.43
2022-12-20T16:19:36.194Z,5.36
2022-12-20T16:23:37.673Z,5.39
2022-12-20T16:27:39.117Z,5.98
2022-12-20T16:31:42.346Z,5.61
2022-12-20T16:35:43.958Z,5.37
2022-12-20T16:39:45.785Z,5.22
2022-12-20T16:43:50.135Z,5.41
2022-12-20T16:47:53.082Z,5.26
2022-12-20T16:51:54.549Z,5.18
2022-12-20T16:55:56.007Z,5.25
2022-12-20T16:59:57.575Z,5.13
2022-12-20T17:03:59.294Z,5.17
2022-12-20T17:08:01.324Z,5.29
2022-12-20T17:12:04.305Z,5.38
2022-12-20T17:16:06.487Z,5.25
2022-12-20T17:20:08.334Z,5.26
2022-12-20T17:24:18.639Z,5.33
2022-12-20T17:28:20.162Z,5.30
2022-12-20T17:32:24.439Z,5.36
2022-12-20T17:36:29.731Z,5.67
2022-12-20T17:40:34.559Z,5.49
2022-12-20T17:44:36.358Z,5.56
2022-12-20T17:48:43.550Z,5.57
2022-12-20T17:52:46.038Z,5.50
2022-12-20T17:56:49.558Z,5.40
2022-12-20T18:00:51.122Z,5.48
2022-12-20T18:04:52.991Z,5.43
2022-12-20T18:08:56.373Z,5.45
2022-12-20T18:12:57.877Z,5.40
2022-12-20T18:16:59.444Z,5.43
2022-12-20T18:21:02.841Z,5.36
2022-12-20T18:25:08.226Z,5.36
2022-12-20T18:29:10.779Z,5.36
2022-12-20T18:33:12.457Z,5.39
2022-12-20T18:37:13.998Z,5.42
2022-12-20T18:41:18.848Z,5.29
2022-12-20T18:45:20.361Z,5.30
2022-12-20T18:49:21.794Z,5.21
2022-12-20T18:53:23.320Z,5.24
2022-12-20T18:57:27.799Z,5.26
2022-12-20T19:01:32.177Z,5.12
2022-12-20T19:05:34.282Z,5.10
2022-12-20T19:09:35.840Z,5.09
2022-12-20T19:13:38.741Z,5.13
2022-12-20T19:17:40.292Z,5.17
2022-12-20T19:21:42.223Z,5.10
2022-12-20T19:25:43.710Z,5.14
2022-12-20T19:29:45.169Z,5.15
2022-12-20T19:33:47.640Z,4.99
2022-12-20T19:37:49.137Z,4.94
2022-12-20T19:46:13.718Z,4.87
2022-12-20T19:50:15.343Z,4.89
2022-12-20T19:54:16.912Z,4.81
2022-12-20T19:58:18.459Z,4.85
2022-12-20T20:02:20.173Z,4.90
2022-12-20T20:06:22.730Z,4.83
2022-12-20T20:10:24.181Z,4.74
2022-12-20T20:14:25.647Z,4.83
2022-12-20T20:18:28.209Z,4.76
2022-12-20T20:22:29.633Z,4.60
2022-12-20T20:26:33.964Z,4.57
2022-12-20T20:30:35.501Z,4.53
2022-12-20T20:34:37.049Z,4.49
2022-12-20T20:38:41.636Z,4.57
2022-12-20T20:42:43.126Z,4.73
2022-12-20T20:46:44.930Z,4.48
2022-12-20T20:50:46.812Z,4.39
2022-12-20T20:54:48.361Z,4.45
2022-12-20T20:58:50.564Z,4.47
2022-12-20T21:02:52.181Z,4.52
2022-12-20T21:06:53.977Z,4.31
2022-12-20T21:10:55.568Z,4.24
2022-12-20T21:19:18.611Z,4.36
2022-12-20T21:23:20.173Z,4.25
2022-12-20T21:27:21.686Z,4.25
2022-12-20T21:31:23.368Z,4.17
2022-12-20T21:35:29.362Z,4.19
2022-12-20T21:39:30.827Z,4.21
2022-12-20T21:43:32.980Z,4.25
2022-12-20T21:47:35.739Z,4.36
2022-12-20T21:51:37.264Z,4.23
2022-12-20T21:55:38.720Z,4.34
2022-12-20T21:59:44.734Z,4.37
2022-12-20T22:03:54.395Z,4.44
2022-12-20T22:07:56.093Z,4.50
2022-12-20T22:11:58.059Z,4.36
2022-12-20T22:16:00.290Z,4.40
2022-12-20T22:20:01.960Z,4.37
2022-12-20T22:24:12.275Z,4.44
2022-12-20T22:28:13.833Z,4.55
2022-12-20T22:32:15.301Z,4.59
2022-12-20T22:36:17.260Z,4.35
2022-12-20T22:40:19.550Z,4.51
2022-12-20T22:44:21.236Z,4.37
2022-12-20T22:48:23.065Z,4.40
2022-12-20T22:52:24.553Z,4.43
2022-12-20T22:56:27.416Z,4.48
2022-12-20T23:00:28.899Z,4.40
2022-12-20T23:04:30.399Z,4.38
2022-12-20T23:08:34.570Z,4.34
2022-12-20T23:12:54.696Z,4.27
2022-12-20T23:16:56.288Z,4.23
2022-12-20T23:21:16.294Z,4.25
2022-12-20T23:25:19.609Z,4.30
2022-12-20T23:29:21.109Z,4.18
2022-12-20T23:33:22.546Z,4.23
2022-12-20T23:37:23.983Z,4.23
2022-12-20T23:41:25.448Z,4.13
2022-12-20T23:45:26.909Z,4.21
2022-12-20T23:49:28.355Z,4.31
2022-12-20T23:53:30.274Z,4.06
2022-12-20T23:57:31.797Z,4.15
